sensor_id;sensor_type;location;lat;lon;timestamp;P1;durP1;ratioP1;P2;durP2;ratioP2
64335;SDS011;50672;53.362;-6.240;2023-02-28T00:01:11;2.50;;;1.10;;
64335;SDS011;50672;53.362;-6.240;2023-02-28T00:03:39;2.17;;;1.30;;
64335;SDS011;50672;53.362;-6.240;2023-02-28T00:06:06;3.80;;;1.30;;
64335;SDS011;50672;53.362;-6.240;2023-02-28T00:08:36;0.73;;;0.60;;
64335;SDS011;50672;53.362;-6.240;2023-02-28T00:11:03;4.93;;;1.13;;
64335;SDS011;50672;53.362;-6.240;2023-02-28T00:13:40;1.93;;;0.90;;
64335;SDS011;50672;53.362;-6.240;2023-02-28T00:16:10;4.53;;;1.20;;
64335;SDS011;50672;53.362;-6.240;2023-02-28T00:18:39;1.27;;;0.80;;
64335;SDS011;50672;53.362;-6.240;2023-02-28T00:21:07;3.97;;;1.10;;
64335;SDS011;50672;53.362;-6.240;2023-02-28T00:23:34;2.87;;;0.93;;
64335;SDS011;50672;53.362;-6.240;2023-02-28T00:26:01;3.80;;;1.10;;
64335;SDS011;50672;53.362;-6.240;2023-02-28T00:28:28;2.47;;;1.10;;
64335;SDS011;50672;53.362;-6.240;2023-02-28T00:30:55;3.60;;;1.23;;
64335;SDS011;50672;53.362;-6.240;2023-02-28T00:33:23;3.23;;;1.10;;
64335;SDS011;50672;53.362;-6.240;2023-02-28T00:35:50;3.07;;;1.10;;
64335;SDS011;50672;53.362;-6.240;2023-02-28T00:38:17;4.23;;;1.37;;
64335;SDS011;50672;53.362;-6.240;2023-02-28T00:40:44;5.17;;;1.43;;
64335;SDS011;50672;53.362;-6.240;2023-02-28T00:43:10;8.27;;;1.30;;
64335;SDS011;50672;53.362;-6.240;2023-02-28T00:45:37;3.23;;;1.10;;
64335;SDS011;50672;53.362;-6.240;2023-02-28T00:48:04;3.97;;;1.20;;
64335;SDS011;50672;53.362;-6.240;2023-02-28T00:50:32;4.53;;;1.30;;
64335;SDS011;50672;53.362;-6.240;2023-02-28T00:52:59;7.30;;;1.60;;
64335;SDS011;50672;53.362;-6.240;2023-02-28T00:55:25;3.67;;;1.63;;
64335;SDS011;50672;53.362;-6.240;2023-02-28T00:57:52;6.27;;;2.27;;
64335;SDS011;50672;53.362;-6.240;2023-02-28T01:00:19;4.80;;;1.63;;
64335;SDS011;50672;53.362;-6.240;2023-02-28T01:02:46;2.80;;;1.43;;
64335;SDS011;50672;53.362;-6.240;2023-02-28T01:05:12;3.90;;;1.10;;
64335;SDS011;50672;53.362;-6.240;2023-02-28T01:07:39;5.83;;;0.97;;
64335;SDS011;50672;53.362;-6.240;2023-02-28T01:10:07;4.30;;;1.03;;
64335;SDS011;50672;53.362;-6.240;2023-02-28T01:12:34;4.00;;;1.23;;
64335;SDS011;50672;53.362;-6.240;2023-02-28T01:15:01;3.23;;;1.13;;
64335;SDS011;50672;53.362;-6.240;2023-02-28T01:17:28;3.33;;;0.70;;
64335;SDS011;50672;53.362;-6.240;2023-02-28T01:19:55;4.67;;;0.80;;
64335;SDS011;50672;53.362;-6.240;2023-02-28T01:22:22;3.60;;;1.00;;
64335;SDS011;50672;53.362;-6.240;2023-02-28T01:24:49;2.63;;;0.70;;
64335;SDS011;50672;53.362;-6.240;2023-02-28T01:27:16;2.30;;;0.97;;
64335;SDS011;50672;53.362;-6.240;2023-02-28T01:29:42;1.77;;;1.07;;
64335;SDS011;50672;53.362;-6.240;2023-02-28T01:32:09;8.20;;;0.93;;
64335;SDS011;50672;53.362;-6.240;2023-02-28T01:34:36;2.57;;;0.70;;
64335;SDS011;50672;53.362;-6.240;2023-02-28T01:37:03;2.13;;;0.50;;
64335;SDS011;50672;53.362;-6.240;2023-02-28T01:39:30;4.00;;;0.70;;
64335;SDS011;50672;53.362;-6.240;2023-02-28T01:41:57;1.60;;;0.90;;
64335;SDS011;50672;53.362;-6.240;2023-02-28T01:47:25;0.85;;;0.60;;
64335;SDS011;50672;53.362;-6.240;2023-02-28T01:49:56;1.85;;;0.68;;
64335;SDS011;50672;53.362;-6.240;2023-02-28T01:52:25;2.43;;;0.70;;
64335;SDS011;50672;53.362;-6.240;2023-02-28T01:54:54;2.03;;;0.50;;
64335;SDS011;50672;53.362;-6.240;2023-02-28T01:57:24;2.23;;;0.73;;
64335;SDS011;50672;53.362;-6.240;2023-02-28T01:59:57;3.43;;;0.80;;
64335;SDS011;50672;53.362;-6.240;2023-02-28T02:04:59;11.70;;;1.63;;
64335;SDS011;50672;53.362;-6.240;2023-02-28T02:07:33;1.23;;;0.50;;
64335;SDS011;50672;53.362;-6.240;2023-02-28T02:10:13;3.73;;;0.60;;
64335;SDS011;50672;53.362;-6.240;2023-02-28T02:25:42;2.50;;;0.80;;
64335;SDS011;50672;53.362;-6.240;2023-02-28T02:39:36;1.17;;;0.67;;
64335;SDS011;50672;53.362;-6.240;2023-02-28T02:42:11;3.83;;;0.50;;
64335;SDS011;50672;53.362;-6.240;2023-02-28T02:44:44;3.07;;;0.60;;
64335;SDS011;50672;53.362;-6.240;2023-02-28T02:47:16;1.60;;;0.50;;
64335;SDS011;50672;53.362;-6.240;2023-02-28T02:49:48;2.35;;;1.00;;
64335;SDS011;50672;53.362;-6.240;2023-02-28T02:52:18;1.67;;;0.60;;
64335;SDS011;50672;53.362;-6.240;2023-02-28T02:54:48;0.70;;;0.50;;
64335;SDS011;50672;53.362;-6.240;2023-02-28T02:57:36;4.33;;;0.70;;
64335;SDS011;50672;53.362;-6.240;2023-02-28T03:00:11;2.30;;;0.50;;
64335;SDS011;50672;53.362;-6.240;2023-02-28T03:02:39;4.70;;;1.90;;
64335;SDS011;50672;53.362;-6.240;2023-02-28T03:05:08;2.03;;;0.70;;
64335;SDS011;50672;53.362;-6.240;2023-02-28T03:07:44;2.30;;;0.60;;
64335;SDS011;50672;53.362;-6.240;2023-02-28T03:10:27;1.93;;;0.60;;
64335;SDS011;50672;53.362;-6.240;2023-02-28T03:13:39;2.70;;;0.77;;
64335;SDS011;50672;53.362;-6.240;2023-02-28T03:18:52;2.17;;;0.70;;
64335;SDS011;50672;53.362;-6.240;2023-02-28T03:24:11;1.33;;;0.63;;
64335;SDS011;50672;53.362;-6.240;2023-02-28T03:26:46;2.40;;;1.00;;
64335;SDS011;50672;53.362;-6.240;2023-02-28T03:32:45;3.40;;;0.60;;
64335;SDS011;50672;53.362;-6.240;2023-02-28T03:35:06;3.03;;;0.60;;
64335;SDS011;50672;53.362;-6.240;2023-02-28T03:37:33;5.37;;;0.80;;
64335;SDS011;50672;53.362;-6.240;2023-02-28T03:40:08;2.97;;;0.70;;
64335;SDS011;50672;53.362;-6.240;2023-02-28T03:42:39;1.73;;;0.93;;
64335;SDS011;50672;53.362;-6.240;2023-02-28T03:45:11;3.30;;;1.10;;
64335;SDS011;50672;53.362;-6.240;2023-02-28T03:47:57;3.45;;;0.90;;
64335;SDS011;50672;53.362;-6.240;2023-02-28T03:53:21;2.17;;;0.90;;
64335;SDS011;50672;53.362;-6.240;2023-02-28T03:55:55;4.60;;;0.70;;
64335;SDS011;50672;53.362;-6.240;2023-02-28T04:01:07;2.20;;;0.40;;
64335;SDS011;50672;53.362;-6.240;2023-02-28T04:03:36;5.90;;;0.80;;
64335;SDS011;50672;53.362;-6.240;2023-02-28T04:06:05;2.50;;;0.70;;
64335;SDS011;50672;53.362;-6.240;2023-02-28T04:08:38;3.23;;;0.60;;
64335;SDS011;50672;53.362;-6.240;2023-02-28T04:11:06;2.07;;;0.50;;
64335;SDS011;50672;53.362;-6.240;2023-02-28T04:13:41;3.23;;;0.60;;
64335;SDS011;50672;53.362;-6.240;2023-02-28T04:16:08;2.17;;;0.67;;
64335;SDS011;50672;53.362;-6.240;2023-02-28T04:18:49;2.17;;;0.67;;
64335;SDS011;50672;53.362;-6.240;2023-02-28T04:21:16;2.57;;;0.80;;
64335;SDS011;50672;53.362;-6.240;2023-02-28T04:23:46;1.67;;;0.80;;
64335;SDS011;50672;53.362;-6.240;2023-02-28T04:26:13;4.60;;;0.80;;
64335;SDS011;50672;53.362;-6.240;2023-02-28T04:28:40;1.83;;;0.90;;
64335;SDS011;50672;53.362;-6.240;2023-02-28T04:31:07;2.83;;;0.73;;
64335;SDS011;50672;53.362;-6.240;2023-02-28T04:33:33;4.60;;;0.80;;
64335;SDS011;50672;53.362;-6.240;2023-02-28T04:36:01;7.70;;;1.20;;
64335;SDS011;50672;53.362;-6.240;2023-02-28T04:38:32;2.10;;;0.63;;
64335;SDS011;50672;53.362;-6.240;2023-02-28T04:41:00;2.43;;;0.73;;
64335;SDS011;50672;53.362;-6.240;2023-02-28T04:43:28;2.47;;;0.60;;
64335;SDS011;50672;53.362;-6.240;2023-02-28T04:45:57;2.33;;;0.70;;
64335;SDS011;50672;53.362;-6.240;2023-02-28T04:48:30;1.17;;;0.60;;
64335;SDS011;50672;53.362;-6.240;2023-02-28T04:51:06;2.03;;;0.90;;
64335;SDS011;50672;53.362;-6.240;2023-02-28T04:53:35;2.13;;;0.80;;
64335;SDS011;50672;53.362;-6.240;2023-02-28T04:56:02;3.60;;;0.70;;
64335;SDS011;50672;53.362;-6.240;2023-02-28T04:58:29;3.67;;;1.47;;
64335;SDS011;50672;53.362;-6.240;2023-02-28T05:01:30;4.10;;;0.90;;
64335;SDS011;50672;53.362;-6.240;2023-02-28T05:03:58;4.63;;;1.43;;
64335;SDS011;50672;53.362;-6.240;2023-02-28T05:06:26;4.53;;;0.87;;
64335;SDS011;50672;53.362;-6.240;2023-02-28T05:08:54;5.63;;;0.87;;
64335;SDS011;50672;53.362;-6.240;2023-02-28T05:11:22;2.23;;;1.17;;
64335;SDS011;50672;53.362;-6.240;2023-02-28T05:13:52;1.87;;;0.80;;
64335;SDS011;50672;53.362;-6.240;2023-02-28T05:16:20;0.97;;;0.73;;
64335;SDS011;50672;53.362;-6.240;2023-02-28T05:18:46;0.97;;;0.60;;
64335;SDS011;50672;53.362;-6.240;2023-02-28T05:23:46;1.67;;;0.60;;
64335;SDS011;50672;53.362;-6.240;2023-02-28T05:26:13;1.77;;;0.70;;
64335;SDS011;50672;53.362;-6.240;2023-02-28T05:28:40;3.20;;;0.50;;
64335;SDS011;50672;53.362;-6.240;2023-02-28T05:31:07;2.60;;;0.57;;
64335;SDS011;50672;53.362;-6.240;2023-02-28T05:33:37;0.90;;;0.70;;
64335;SDS011;50672;53.362;-6.240;2023-02-28T05:36:04;1.80;;;0.80;;
64335;SDS011;50672;53.362;-6.240;2023-02-28T05:38:31;1.80;;;0.53;;
64335;SDS011;50672;53.362;-6.240;2023-02-28T05:40:58;2.47;;;0.57;;
64335;SDS011;50672;53.362;-6.240;2023-02-28T05:43:25;2.80;;;0.53;;
64335;SDS011;50672;53.362;-6.240;2023-02-28T05:45:51;3.10;;;0.70;;
64335;SDS011;50672;53.362;-6.240;2023-02-28T05:48:18;1.90;;;0.63;;
64335;SDS011;50672;53.362;-6.240;2023-02-28T05:50:45;2.37;;;0.60;;
64335;SDS011;50672;53.362;-6.240;2023-02-28T05:53:12;1.70;;;0.60;;
64335;SDS011;50672;53.362;-6.240;2023-02-28T05:55:39;1.97;;;1.00;;
64335;SDS011;50672;53.362;-6.240;2023-02-28T05:58:07;1.60;;;0.70;;
64335;SDS011;50672;53.362;-6.240;2023-02-28T06:00:37;5.50;;;1.20;;
64335;SDS011;50672;53.362;-6.240;2023-02-28T06:03:06;1.77;;;0.77;;
64335;SDS011;50672;53.362;-6.240;2023-02-28T06:05:33;1.60;;;0.73;;
64335;SDS011;50672;53.362;-6.240;2023-02-28T06:08:00;2.00;;;0.70;;
64335;SDS011;50672;53.362;-6.240;2023-02-28T06:10:26;5.60;;;0.83;;
64335;SDS011;50672;53.362;-6.240;2023-02-28T06:12:53;3.53;;;0.87;;
64335;SDS011;50672;53.362;-6.240;2023-02-28T06:15:20;1.87;;;0.80;;
64335;SDS011;50672;53.362;-6.240;2023-02-28T06:17:47;2.03;;;0.70;;
64335;SDS011;50672;53.362;-6.240;2023-02-28T06:20:14;2.00;;;0.70;;
64335;SDS011;50672;53.362;-6.240;2023-02-28T06:22:40;1.30;;;0.60;;
64335;SDS011;50672;53.362;-6.240;2023-02-28T06:25:08;2.23;;;0.97;;
64335;SDS011;50672;53.362;-6.240;2023-02-28T06:27:36;2.50;;;1.00;;
64335;SDS011;50672;53.362;-6.240;2023-02-28T06:30:03;1.13;;;1.00;;
64335;SDS011;50672;53.362;-6.240;2023-02-28T06:32:30;1.37;;;1.23;;
64335;SDS011;50672;53.362;-6.240;2023-02-28T06:34:57;2.20;;;0.90;;
64335;SDS011;50672;53.362;-6.240;2023-02-28T06:37:24;2.47;;;1.40;;
64335;SDS011;50672;53.362;-6.240;2023-02-28T06:39:54;4.27;;;1.30;;
64335;SDS011;50672;53.362;-6.240;2023-02-28T06:42:24;2.27;;;1.13;;
64335;SDS011;50672;53.362;-6.240;2023-02-28T06:44:55;1.87;;;1.03;;
64335;SDS011;50672;53.362;-6.240;2023-02-28T06:47:22;1.40;;;0.90;;
64335;SDS011;50672;53.362;-6.240;2023-02-28T06:49:49;4.13;;;0.87;;
64335;SDS011;50672;53.362;-6.240;2023-02-28T06:52:16;2.83;;;1.17;;
64335;SDS011;50672;53.362;-6.240;2023-02-28T06:54:43;4.90;;;1.80;;
64335;SDS011;50672;53.362;-6.240;2023-02-28T06:57:10;2.23;;;1.50;;
64335;SDS011;50672;53.362;-6.240;2023-02-28T06:59:37;2.90;;;1.40;;
64335;SDS011;50672;53.362;-6.240;2023-02-28T07:02:03;3.63;;;1.87;;
64335;SDS011;50672;53.362;-6.240;2023-02-28T07:04:32;3.07;;;1.00;;
64335;SDS011;50672;53.362;-6.240;2023-02-28T07:06:59;3.53;;;1.23;;
64335;SDS011;50672;53.362;-6.240;2023-02-28T07:09:26;2.47;;;1.07;;
64335;SDS011;50672;53.362;-6.240;2023-02-28T07:11:56;2.57;;;0.90;;
64335;SDS011;50672;53.362;-6.240;2023-02-28T07:14:23;2.10;;;0.70;;
64335;SDS011;50672;53.362;-6.240;2023-02-28T07:16:49;4.27;;;0.70;;
64335;SDS011;50672;53.362;-6.240;2023-02-28T07:19:16;1.50;;;0.53;;
64335;SDS011;50672;53.362;-6.240;2023-02-28T07:21:43;2.57;;;0.80;;
64335;SDS011;50672;53.362;-6.240;2023-02-28T07:24:11;3.13;;;0.83;;
64335;SDS011;50672;53.362;-6.240;2023-02-28T07:26:38;1.93;;;0.60;;
64335;SDS011;50672;53.362;-6.240;2023-02-28T07:29:05;2.27;;;1.20;;
64335;SDS011;50672;53.362;-6.240;2023-02-28T07:31:31;3.53;;;0.80;;
64335;SDS011;50672;53.362;-6.240;2023-02-28T07:33:58;4.97;;;0.60;;
64335;SDS011;50672;53.362;-6.240;2023-02-28T07:36:25;1.53;;;0.50;;
64335;SDS011;50672;53.362;-6.240;2023-02-28T07:38:52;3.47;;;1.00;;
64335;SDS011;50672;53.362;-6.240;2023-02-28T07:41:20;2.40;;;0.60;;
64335;SDS011;50672;53.362;-6.240;2023-02-28T07:43:48;1.50;;;0.77;;
64335;SDS011;50672;53.362;-6.240;2023-02-28T07:46:15;2.27;;;0.63;;
64335;SDS011;50672;53.362;-6.240;2023-02-28T07:48:43;3.73;;;0.57;;
64335;SDS011;50672;53.362;-6.240;2023-02-28T07:51:10;3.50;;;0.50;;
64335;SDS011;50672;53.362;-6.240;2023-02-28T07:53:37;1.60;;;0.60;;
64335;SDS011;50672;53.362;-6.240;2023-02-28T07:56:04;3.33;;;0.70;;
64335;SDS011;50672;53.362;-6.240;2023-02-28T07:58:31;2.57;;;0.70;;
64335;SDS011;50672;53.362;-6.240;2023-02-28T08:01:05;2.13;;;1.03;;
64335;SDS011;50672;53.362;-6.240;2023-02-28T08:03:33;2.20;;;0.50;;
64335;SDS011;50672;53.362;-6.240;2023-02-28T08:06:00;1.10;;;0.53;;
64335;SDS011;50672;53.362;-6.240;2023-02-28T08:08:28;1.87;;;0.50;;
64335;SDS011;50672;53.362;-6.240;2023-02-28T08:11:01;2.73;;;0.70;;
64335;SDS011;50672;53.362;-6.240;2023-02-28T08:13:29;3.20;;;0.80;;
64335;SDS011;50672;53.362;-6.240;2023-02-28T08:15:56;3.63;;;1.17;;
64335;SDS011;50672;53.362;-6.240;2023-02-28T08:18:24;1.57;;;0.60;;
64335;SDS011;50672;53.362;-6.240;2023-02-28T08:20:50;1.80;;;0.60;;
64335;SDS011;50672;53.362;-6.240;2023-02-28T08:23:17;2.33;;;0.83;;
64335;SDS011;50672;53.362;-6.240;2023-02-28T08:25:44;1.07;;;0.50;;
64335;SDS011;50672;53.362;-6.240;2023-02-28T08:28:11;4.87;;;0.60;;
64335;SDS011;50672;53.362;-6.240;2023-02-28T08:30:38;2.50;;;0.50;;
64335;SDS011;50672;53.362;-6.240;2023-02-28T08:33:07;1.73;;;0.40;;
64335;SDS011;50672;53.362;-6.240;2023-02-28T08:35:35;2.13;;;0.47;;
64335;SDS011;50672;53.362;-6.240;2023-02-28T08:38:02;0.67;;;0.50;;
64335;SDS011;50672;53.362;-6.240;2023-02-28T08:40:29;2.87;;;0.50;;
64335;SDS011;50672;53.362;-6.240;2023-02-28T08:42:56;1.70;;;0.50;;
64335;SDS011;50672;53.362;-6.240;2023-02-28T08:45:23;2.83;;;0.40;;
64335;SDS011;50672;53.362;-6.240;2023-02-28T08:47:50;1.43;;;0.60;;
64335;SDS011;50672;53.362;-6.240;2023-02-28T08:50:20;6.37;;;1.40;;
64335;SDS011;50672;53.362;-6.240;2023-02-28T08:52:48;2.97;;;0.60;;
64335;SDS011;50672;53.362;-6.240;2023-02-28T08:55:15;2.90;;;0.80;;
64335;SDS011;50672;53.362;-6.240;2023-02-28T08:57:42;7.27;;;0.70;;
64335;SDS011;50672;53.362;-6.240;2023-02-28T09:00:09;2.53;;;0.50;;
64335;SDS011;50672;53.362;-6.240;2023-02-28T09:02:40;0.60;;;0.47;;
64335;SDS011;50672;53.362;-6.240;2023-02-28T09:05:09;0.93;;;0.60;;
64335;SDS011;50672;53.362;-6.240;2023-02-28T09:07:35;1.60;;;0.50;;
64335;SDS011;50672;53.362;-6.240;2023-02-28T09:10:02;4.47;;;0.63;;
64335;SDS011;50672;53.362;-6.240;2023-02-28T09:12:31;4.30;;;1.50;;
64335;SDS011;50672;53.362;-6.240;2023-02-28T09:15:01;5.37;;;0.87;;
64335;SDS011;50672;53.362;-6.240;2023-02-28T09:17:28;3.77;;;0.97;;
64335;SDS011;50672;53.362;-6.240;2023-02-28T09:19:56;5.13;;;0.90;;
64335;SDS011;50672;53.362;-6.240;2023-02-28T09:22:23;3.90;;;0.83;;
64335;SDS011;50672;53.362;-6.240;2023-02-28T09:24:50;1.13;;;0.73;;
64335;SDS011;50672;53.362;-6.240;2023-02-28T09:27:17;1.07;;;0.63;;
64335;SDS011;50672;53.362;-6.240;2023-02-28T09:29:45;4.47;;;1.10;;
64335;SDS011;50672;53.362;-6.240;2023-02-28T09:32:12;0.70;;;0.40;;
64335;SDS011;50672;53.362;-6.240;2023-02-28T09:34:39;2.77;;;0.50;;
64335;SDS011;50672;53.362;-6.240;2023-02-28T09:37:07;4.40;;;0.87;;
64335;SDS011;50672;53.362;-6.240;2023-02-28T09:39:34;2.50;;;0.70;;
64335;SDS011;50672;53.362;-6.240;2023-02-28T09:42:00;3.10;;;0.40;;
64335;SDS011;50672;53.362;-6.240;2023-02-28T09:44:31;1.33;;;0.53;;
64335;SDS011;50672;53.362;-6.240;2023-02-28T09:47:45;6.93;;;1.00;;
64335;SDS011;50672;53.362;-6.240;2023-02-28T09:49:55;2.30;;;0.60;;
64335;SDS011;50672;53.362;-6.240;2023-02-28T09:52:29;4.30;;;0.70;;
64335;SDS011;50672;53.362;-6.240;2023-02-28T09:57:46;1.67;;;0.77;;
64335;SDS011;50672;53.362;-6.240;2023-02-28T10:05:52;1.60;;;0.30;;
64335;SDS011;50672;53.362;-6.240;2023-02-28T10:08:28;2.77;;;0.50;;
64335;SDS011;50672;53.362;-6.240;2023-02-28T10:11:00;2.07;;;0.37;;
64335;SDS011;50672;53.362;-6.240;2023-02-28T10:16:17;2.20;;;0.80;;
64335;SDS011;50672;53.362;-6.240;2023-02-28T10:21:57;1.50;;;0.30;;
64335;SDS011;50672;53.362;-6.240;2023-02-28T10:27:01;3.90;;;0.40;;
64335;SDS011;50672;53.362;-6.240;2023-02-28T10:29:37;0.50;;;0.30;;
64335;SDS011;50672;53.362;-6.240;2023-02-28T10:32:08;0.60;;;0.30;;
64335;SDS011;50672;53.362;-6.240;2023-02-28T10:34:40;1.83;;;0.40;;
64335;SDS011;50672;53.362;-6.240;2023-02-28T10:37:07;1.40;;;0.30;;
64335;SDS011;50672;53.362;-6.240;2023-02-28T10:39:38;0.67;;;0.47;;
64335;SDS011;50672;53.362;-6.240;2023-02-28T10:45:04;0.50;;;0.30;;
64335;SDS011;50672;53.362;-6.240;2023-02-28T10:47:33;0.93;;;0.73;;
64335;SDS011;50672;53.362;-6.240;2023-02-28T10:50:03;0.90;;;0.43;;
64335;SDS011;50672;53.362;-6.240;2023-02-28T10:52:37;1.13;;;0.30;;
64335;SDS011;50672;53.362;-6.240;2023-02-28T10:55:14;3.07;;;0.40;;
64335;SDS011;50672;53.362;-6.240;2023-02-28T10:57:45;1.50;;;0.60;;
64335;SDS011;50672;53.362;-6.240;2023-02-28T11:00:33;2.07;;;0.37;;
64335;SDS011;50672;53.362;-6.240;2023-02-28T11:03:01;0.77;;;0.60;;
64335;SDS011;50672;53.362;-6.240;2023-02-28T11:06:03;2.63;;;0.70;;
64335;SDS011;50672;53.362;-6.240;2023-02-28T11:08:32;5.67;;;1.47;;
64335;SDS011;50672;53.362;-6.240;2023-02-28T11:11:01;2.40;;;0.47;;
64335;SDS011;50672;53.362;-6.240;2023-02-28T11:13:33;2.22;;;0.60;;
64335;SDS011;50672;53.362;-6.240;2023-02-28T11:16:03;2.03;;;0.50;;
64335;SDS011;50672;53.362;-6.240;2023-02-28T11:21:22;1.25;;;0.30;;
64335;SDS011;50672;53.362;-6.240;2023-02-28T11:23:54;5.20;;;0.50;;
64335;SDS011;50672;53.362;-6.240;2023-02-28T11:26:39;0.83;;;0.40;;
64335;SDS011;50672;53.362;-6.240;2023-02-28T11:29:10;1.37;;;0.50;;
64335;SDS011;50672;53.362;-6.240;2023-02-28T11:34:42;0.50;;;0.40;;
64335;SDS011;50672;53.362;-6.240;2023-02-28T11:37:18;1.73;;;0.60;;
64335;SDS011;50672;53.362;-6.240;2023-02-28T11:39:45;1.30;;;0.40;;
64335;SDS011;50672;53.362;-6.240;2023-02-28T11:50:55;0.90;;;0.50;;
64335;SDS011;50672;53.362;-6.240;2023-02-28T12:08:03;1.17;;;0.60;;
64335;SDS011;50672;53.362;-6.240;2023-02-28T12:16:34;1.60;;;0.50;;
64335;SDS011;50672;53.362;-6.240;2023-02-28T12:19:26;1.70;;;0.57;;
64335;SDS011;50672;53.362;-6.240;2023-02-28T12:27:35;1.17;;;0.63;;
64335;SDS011;50672;53.362;-6.240;2023-02-28T12:30:08;2.03;;;0.80;;
64335;SDS011;50672;53.362;-6.240;2023-02-28T12:32:44;3.50;;;0.70;;
64335;SDS011;50672;53.362;-6.240;2023-02-28T12:35:16;1.08;;;0.60;;
64335;SDS011;50672;53.362;-6.240;2023-02-28T12:37:53;2.30;;;0.50;;
64335;SDS011;50672;53.362;-6.240;2023-02-28T12:40:27;1.80;;;0.40;;
64335;SDS011;50672;53.362;-6.240;2023-02-28T12:43:02;2.30;;;0.40;;
64335;SDS011;50672;53.362;-6.240;2023-02-28T12:45:40;6.70;;;1.98;;
64335;SDS011;50672;53.362;-6.240;2023-02-28T12:48:41;2.83;;;0.80;;
64335;SDS011;50672;53.362;-6.240;2023-02-28T12:51:12;1.33;;;0.40;;
64335;SDS011;50672;53.362;-6.240;2023-02-28T12:53:59;2.10;;;0.60;;
64335;SDS011;50672;53.362;-6.240;2023-02-28T12:56:47;3.17;;;0.95;;
64335;SDS011;50672;53.362;-6.240;2023-02-28T12:59:30;1.40;;;0.67;;
64335;SDS011;50672;53.362;-6.240;2023-02-28T13:10:13;2.60;;;0.60;;
64335;SDS011;50672;53.362;-6.240;2023-02-28T13:12:47;1.70;;;0.50;;
64335;SDS011;50672;53.362;-6.240;2023-02-28T13:15:17;7.03;;;1.57;;
64335;SDS011;50672;53.362;-6.240;2023-02-28T13:17:55;3.37;;;0.87;;
64335;SDS011;50672;53.362;-6.240;2023-02-28T13:20:24;1.77;;;0.70;;
64335;SDS011;50672;53.362;-6.240;2023-02-28T13:22:54;2.03;;;0.63;;
64335;SDS011;50672;53.362;-6.240;2023-02-28T13:28:09;1.97;;;0.60;;
64335;SDS011;50672;53.362;-6.240;2023-02-28T13:36:09;1.23;;;0.68;;
64335;SDS011;50672;53.362;-6.240;2023-02-28T13:38:38;3.20;;;1.43;;
64335;SDS011;50672;53.362;-6.240;2023-02-28T13:41:51;1.27;;;0.68;;
64335;SDS011;50672;53.362;-6.240;2023-02-28T13:44:15;1.47;;;0.60;;
64335;SDS011;50672;53.362;-6.240;2023-02-28T13:51:53;2.17;;;0.90;;
64335;SDS011;50672;53.362;-6.240;2023-02-28T14:05:06;3.77;;;1.00;;
64335;SDS011;50672;53.362;-6.240;2023-02-28T14:10:29;1.50;;;1.10;;
64335;SDS011;50672;53.362;-6.240;2023-02-28T14:13:03;3.27;;;1.00;;
64335;SDS011;50672;53.362;-6.240;2023-02-28T14:15:43;2.30;;;1.03;;
64335;SDS011;50672;53.362;-6.240;2023-02-28T14:18:18;1.67;;;0.60;;
64335;SDS011;50672;53.362;-6.240;2023-02-28T14:21:09;2.33;;;0.70;;
64335;SDS011;50672;53.362;-6.240;2023-02-28T14:37:27;3.67;;;1.70;;
64335;SDS011;50672;53.362;-6.240;2023-02-28T14:39:57;5.67;;;1.53;;
64335;SDS011;50672;53.362;-6.240;2023-02-28T14:42:35;2.20;;;1.00;;
64335;SDS011;50672;53.362;-6.240;2023-02-28T14:45:17;1.90;;;1.10;;
64335;SDS011;50672;53.362;-6.240;2023-02-28T14:47:51;3.93;;;0.80;;
64335;SDS011;50672;53.362;-6.240;2023-02-28T14:50:19;5.60;;;1.37;;
64335;SDS011;50672;53.362;-6.240;2023-02-28T14:52:46;5.10;;;1.63;;
64335;SDS011;50672;53.362;-6.240;2023-02-28T14:55:17;1.53;;;0.80;;
64335;SDS011;50672;53.362;-6.240;2023-02-28T14:57:52;3.90;;;0.93;;
64335;SDS011;50672;53.362;-6.240;2023-02-28T15:00:22;2.53;;;1.43;;
64335;SDS011;50672;53.362;-6.240;2023-02-28T15:02:50;6.77;;;2.67;;
64335;SDS011;50672;53.362;-6.240;2023-02-28T15:05:25;3.90;;;2.33;;
64335;SDS011;50672;53.362;-6.240;2023-02-28T15:13:13;5.23;;;1.30;;
64335;SDS011;50672;53.362;-6.240;2023-02-28T15:15:57;3.20;;;1.40;;
64335;SDS011;50672;53.362;-6.240;2023-02-28T15:21:33;4.23;;;1.77;;
64335;SDS011;50672;53.362;-6.240;2023-02-28T15:27:00;5.20;;;2.40;;
64335;SDS011;50672;53.362;-6.240;2023-02-28T15:29:32;4.43;;;1.47;;
64335;SDS011;50672;53.362;-6.240;2023-02-28T15:32:18;4.07;;;1.43;;
64335;SDS011;50672;53.362;-6.240;2023-02-28T15:34:50;2.60;;;0.93;;
64335;SDS011;50672;53.362;-6.240;2023-02-28T15:37:27;4.50;;;1.10;;
64335;SDS011;50672;53.362;-6.240;2023-02-28T15:45:34;3.60;;;0.90;;
64335;SDS011;50672;53.362;-6.240;2023-02-28T15:48:05;2.60;;;1.13;;
64335;SDS011;50672;53.362;-6.240;2023-02-28T15:50:40;2.50;;;0.90;;
64335;SDS011;50672;53.362;-6.240;2023-02-28T15:53:12;6.20;;;1.53;;
64335;SDS011;50672;53.362;-6.240;2023-02-28T15:55:41;3.27;;;1.03;;
64335;SDS011;50672;53.362;-6.240;2023-02-28T15:58:08;4.80;;;1.03;;
64335;SDS011;50672;53.362;-6.240;2023-02-28T16:00:39;1.93;;;1.00;;
64335;SDS011;50672;53.362;-6.240;2023-02-28T16:03:23;4.80;;;1.07;;
64335;SDS011;50672;53.362;-6.240;2023-02-28T16:08:44;3.17;;;1.20;;
64335;SDS011;50672;53.362;-6.240;2023-02-28T16:11:11;4.80;;;2.17;;
64335;SDS011;50672;53.362;-6.240;2023-02-28T16:13:38;5.07;;;2.40;;
64335;SDS011;50672;53.362;-6.240;2023-02-28T16:16:05;2.80;;;1.10;;
64335;SDS011;50672;53.362;-6.240;2023-02-28T16:18:32;3.03;;;1.50;;
64335;SDS011;50672;53.362;-6.240;2023-02-28T16:20:58;4.60;;;2.70;;
64335;SDS011;50672;53.362;-6.240;2023-02-28T16:23:26;5.00;;;2.57;;
64335;SDS011;50672;53.362;-6.240;2023-02-28T16:25:52;4.20;;;1.43;;
64335;SDS011;50672;53.362;-6.240;2023-02-28T16:28:20;5.00;;;1.13;;
64335;SDS011;50672;53.362;-6.240;2023-02-28T16:30:51;3.72;;;2.00;;
64335;SDS011;50672;53.362;-6.240;2023-02-28T16:33:18;4.37;;;1.90;;
64335;SDS011;50672;53.362;-6.240;2023-02-28T16:35:45;4.33;;;1.60;;
64335;SDS011;50672;53.362;-6.240;2023-02-28T16:38:12;3.37;;;1.50;;
64335;SDS011;50672;53.362;-6.240;2023-02-28T16:40:39;3.43;;;2.20;;
64335;SDS011;50672;53.362;-6.240;2023-02-28T16:43:11;7.37;;;4.43;;
64335;SDS011;50672;53.362;-6.240;2023-02-28T16:45:41;3.33;;;2.00;;
64335;SDS011;50672;53.362;-6.240;2023-02-28T16:48:12;6.73;;;3.77;;
64335;SDS011;50672;53.362;-6.240;2023-02-28T16:50:41;8.63;;;2.78;;
64335;SDS011;50672;53.362;-6.240;2023-02-28T16:53:10;4.23;;;1.90;;
64335;SDS011;50672;53.362;-6.240;2023-02-28T16:55:36;4.17;;;1.80;;
64335;SDS011;50672;53.362;-6.240;2023-02-28T16:58:03;3.97;;;2.10;;
64335;SDS011;50672;53.362;-6.240;2023-02-28T17:00:31;6.27;;;2.80;;
64335;SDS011;50672;53.362;-6.240;2023-02-28T17:02:58;4.67;;;1.40;;
64335;SDS011;50672;53.362;-6.240;2023-02-28T17:05:25;4.80;;;2.50;;
64335;SDS011;50672;53.362;-6.240;2023-02-28T17:07:57;4.32;;;3.05;;
64335;SDS011;50672;53.362;-6.240;2023-02-28T17:10:25;5.60;;;2.70;;
64335;SDS011;50672;53.362;-6.240;2023-02-28T17:12:52;5.63;;;2.67;;
64335;SDS011;50672;53.362;-6.240;2023-02-28T17:15:28;3.07;;;1.90;;
64335;SDS011;50672;53.362;-6.240;2023-02-28T17:17:55;4.80;;;1.60;;
64335;SDS011;50672;53.362;-6.240;2023-02-28T17:20:23;4.57;;;2.00;;
64335;SDS011;50672;53.362;-6.240;2023-02-28T17:22:50;4.50;;;2.77;;
64335;SDS011;50672;53.362;-6.240;2023-02-28T17:25:18;4.07;;;1.93;;
64335;SDS011;50672;53.362;-6.240;2023-02-28T17:27:46;6.43;;;3.23;;
64335;SDS011;50672;53.362;-6.240;2023-02-28T17:30:26;6.00;;;3.27;;
64335;SDS011;50672;53.362;-6.240;2023-02-28T17:32:54;8.83;;;3.33;;
64335;SDS011;50672;53.362;-6.240;2023-02-28T17:35:22;4.70;;;2.57;;
64335;SDS011;50672;53.362;-6.240;2023-02-28T17:37:50;4.87;;;2.20;;
64335;SDS011;50672;53.362;-6.240;2023-02-28T17:40:19;4.17;;;1.83;;
64335;SDS011;50672;53.362;-6.240;2023-02-28T17:42:46;3.33;;;2.07;;
64335;SDS011;50672;53.362;-6.240;2023-02-28T17:45:13;3.73;;;2.03;;
64335;SDS011;50672;53.362;-6.240;2023-02-28T17:47:41;2.93;;;1.80;;